CheckWX is a tool to help pilots better visualize weather data.  It is not intended as a substitute for an official pre-flight weather briefing.

19:46:53 UTC

KLRF METAR
Little Rock AFB Airport
Jacksonville, Arkansas, USA
Current

51 mins ago

KLRF 291856Z AUTO 01007KT 10SM OVC009 06/04 A3003 RMK AO2 SLP174 T00560041 $
Observed
Jan-29 @ 18:56 UTC
Wind
  • 010° at 7 KTS
Visibility
10 SM
Flight Rules
IFR
Cloud Levels
  • Overcast at 900' AGL
Temperature
C / 43°F
Dewpoint
C / 39°F
Humidity
87%
Altimeter
30.03" Hg
Pressure
1016.92 hPa
Previous

2 hours ago

KLRF 291756Z AUTO 04008KT 10SM OVC008 06/04 A3004 RMK AO2 CIG 007 RWY07 SLP177 60000 T00550041 10055 20043 50007 $
Observed
Jan-29 @ 17:56 UTC
Wind
  • 040° at 8 KTS
Visibility
10 SM
Flight Rules
IFR
Cloud Levels
  • Overcast at 800' AGL
Temperature
C / 43°F
Dewpoint
C / 39°F
Humidity
87%
Altimeter
30.04" Hg
Pressure
1017.32 hPa
Previous

2 hours ago

KLRF 291737Z AUTO 03009KT 10SM OVC007 05/04 A3004 RMK AO2 SLP177 $
Observed
Jan-29 @ 17:37 UTC
Wind
  • 030° at 9 KTS
Visibility
10 SM
Flight Rules
IFR
Cloud Levels
  • Overcast at 700' AGL
Temperature
C / 41°F
Dewpoint
C / 39°F
Humidity
93%
Altimeter
30.04" Hg
Pressure
1017.32 hPa